Time;durP1;ratioP1;P1;durP2;ratioP2;P2;SDS_P1;SDS_P2;PMS_P1;PMS_P2;Temp;Humidity;BMP_temperature;BMP_pressure;BME280_temperature;BME280_humidity;BME280_pressure;Samples;Min_cycle;Max_cycle;Signal;HPM_P1;HPM_P2
2022/02/03 00:00:26;;;;;;;7.13;3.75;;;;;;;;;;5053827;28;20225;-80
2022/02/03 00:03:03;;;;;;;7.80;4.55;;;;;;;;;;5053118;28;20213;-81
2022/02/03 00:05:41;;;;;;;4.80;2.75;;;;;;;;;;5054148;28;20239;-81
2022/02/03 00:08:15;;;;;;;3.60;2.17;;;;;;;;;;5056298;28;20259;-80
2022/02/03 00:22:05;;;;;;;1.70;1.60;;;;;;;;;;5057125;28;20324;-79
2022/02/03 00:24:54;;;;;;;2.35;2.15;;;;;;;;;;5057508;28;20232;-80
2022/02/03 00:27:42;;;;;;;2.53;1.88;;;;;;;;;;5057414;28;20206;-80
2022/02/03 00:30:13;;;;;;;3.75;2.75;;;;;;;;;;5057212;28;20279;-79
2022/02/03 00:35:52;;;;;;;2.97;2.00;;;;;;;;;;5057795;28;20201;-80
2022/02/03 00:38:43;;;;;;;2.22;2.03;;;;;;;;;;5057563;28;20202;-79
2022/02/03 00:49:34;;;;;;;3.83;2.00;;;;;;;;;;5056774;28;20614;-81
2022/02/03 00:52:03;;;;;;;4.70;2.95;;;;;;;;;;5056674;28;20296;-80
2022/02/03 00:54:32;;;;;;;2.55;1.77;;;;;;;;;;5056987;28;20581;-80
2022/02/03 00:57:03;;;;;;;3.30;2.70;;;;;;;;;;5057473;28;20197;-81
2022/02/03 00:59:37;;;;;;;4.63;3.03;;;;;;;;;;5057437;28;20308;-81
2022/02/03 01:02:08;;;;;;;5.05;2.72;;;;;;;;;;5057361;28;20719;-81
2022/02/03 01:04:39;;;;;;;7.05;2.25;;;;;;;;;;5057511;28;20208;-79
2022/02/03 01:07:11;;;;;;;2.58;2.38;;;;;;;;;;5057556;28;20692;-81
2022/02/03 01:09:48;;;;;;;6.05;2.58;;;;;;;;;;5057263;28;20725;-81
2022/02/03 01:12:23;;;;;;;2.83;2.00;;;;;;;;;;5057142;28;20209;-81
2022/02/03 01:14:57;;;;;;;4.43;2.50;;;;;;;;;;5064883;28;20226;-79
2022/02/03 01:17:34;;;;;;;5.95;2.58;;;;;;;;;;5071894;28;20216;-78
2022/02/03 01:37:16;;;;;;;4.20;2.75;;;;;;;;;;5060583;28;20404;-78
2022/02/03 01:45:24;;;;;;;2.15;1.95;;;;;;;;;;5069413;28;20229;-79
2022/02/03 01:48:06;;;;;;;3.00;2.10;;;;;;;;;;5069295;28;20205;-78
2022/02/03 02:16:43;;;;;;;3.88;2.67;;;;;;;;;;5054760;28;20250;-81
2022/02/03 02:19:26;;;;;;;7.25;4.13;;;;;;;;;;5054470;28;20279;-80
2022/02/03 02:38:58;;;;;;;3.30;2.85;;;;;;;;;;5054145;28;20289;-80
2022/02/03 02:44:33;;;;;;;3.20;2.42;;;;;;;;;;5053632;28;20200;-79
2022/02/03 02:47:00;;;;;;;5.75;2.92;;;;;;;;;;5053965;28;20205;-81
2022/02/03 02:49:38;;;;;;;3.47;3.08;;;;;;;;;;5053835;28;20724;-80
2022/02/03 02:52:11;;;;;;;5.15;3.20;;;;;;;;;;5053692;28;20237;-81
2022/02/03 02:55:09;;;;;;;5.40;3.72;;;;;;;;;;5053597;28;20312;-81
2022/02/03 03:03:57;;;;;;;4.65;3.15;;;;;;;;;;5031750;28;20712;-81
2022/02/03 03:29:07;;;;;;;2.83;2.10;;;;;;;;;;5052636;28;20705;-79
2022/02/03 03:31:53;;;;;;;2.20;1.60;;;;;;;;;;5053472;28;20279;-78
2022/02/03 03:34:46;;;;;;;2.88;2.40;;;;;;;;;;5053351;28;20221;-80
2022/02/03 03:37:26;;;;;;;2.60;2.20;;;;;;;;;;5053100;28;20205;-79
2022/02/03 03:39:59;;;;;;;3.33;2.47;;;;;;;;;;5088664;22;20220;-82
2022/02/03 03:42:32;;;;;;;2.50;2.30;;;;;;;;;;5095147;28;20196;-82
2022/02/03 03:45:02;;;;;;;2.42;1.92;;;;;;;;;;5099836;28;20196;-82
2022/02/03 03:47:35;;;;;;;2.30;2.00;;;;;;;;;;5099705;28;20199;-83
2022/02/03 03:50:11;;;;;;;1.92;1.83;;;;;;;;;;5099064;28;20224;-82
2022/02/03 03:52:53;;;;;;;3.00;1.80;;;;;;;;;;5099021;28;20693;-82
2022/02/03 03:55:37;;;;;;;2.08;1.92;;;;;;;;;;5098232;28;20719;-81
2022/02/03 04:30:56;;;;;;;4.88;4.05;;;;;;;;;;5133363;28;20240;-83
2022/02/03 04:39:32;;;;;;;9.13;5.28;;;;;;;;;;5132617;28;20202;-84
2022/02/03 04:42:35;;;;;;;7.53;3.72;;;;;;;;;;5132846;27;20286;-83
2022/02/03 04:45:45;;;;;;;7.65;4.90;;;;;;;;;;5133110;28;20199;-83
2022/02/03 05:03:50;;;;;;;4.10;3.25;;;;;;;;;;5134324;27;20272;-84
2022/02/03 05:06:44;;;;;;;3.15;2.88;;;;;;;;;;5107814;27;20207;-84
2022/02/03 05:09:38;;;;;;;5.03;3.33;;;;;;;;;;5134600;27;20225;-84
2022/02/03 05:12:25;;;;;;;4.15;3.17;;;;;;;;;;5121608;28;20204;-84
2022/02/03 05:18:46;;;;;;;8.70;4.93;;;;;;;;;;5115171;28;20280;-83
2022/02/03 05:21:56;;;;;;;7.13;5.07;;;;;;;;;;5119751;28;20711;-82
2022/02/03 05:24:49;;;;;;;6.95;4.90;;;;;;;;;;5119838;28;20231;-84
2022/02/03 05:34:01;;;;;;;4.13;3.72;;;;;;;;;;5119013;28;20674;-82
2022/02/03 05:42:53;;;;;;;5.15;4.35;;;;;;;;;;5118483;28;20223;-84
2022/02/03 05:45:55;;;;;;;11.48;6.60;;;;;;;;;;5121100;28;20691;-84
2022/02/03 06:04:58;;;;;;;7.03;4.72;;;;;;;;;;5113257;28;20267;-83
2022/02/03 06:13:08;;;;;;;12.02;7.32;;;;;;;;;;5118002;28;20214;-84
2022/02/03 06:23:52;;;;;;;10.27;7.25;;;;;;;;;;5113156;28;20244;-85
2022/02/03 06:29:09;;;;;;;7.72;6.22;;;;;;;;;;5102750;28;20222;-85
2022/02/03 06:31:41;;;;;;;10.25;6.85;;;;;;;;;;5106592;28;20200;-85
2022/02/03 06:34:10;;;;;;;4.97;4.47;;;;;;;;;;5113067;28;20664;-85
2022/02/03 06:36:39;;;;;;;5.72;5.07;;;;;;;;;;5112252;28;20207;-86
2022/02/03 06:39:18;;;;;;;4.47;4.07;;;;;;;;;;5113395;28;20200;-85
2022/02/03 06:41:46;;;;;;;3.70;3.30;;;;;;;;;;5105932;28;20225;-84
2022/02/03 06:44:16;;;;;;;3.40;3.10;;;;;;;;;;5104337;28;20211;-85
2022/02/03 06:46:47;;;;;;;3.70;3.30;;;;;;;;;;5098926;28;20207;-86
2022/02/03 06:49:20;;;;;;;3.00;2.70;;;;;;;;;;5097147;28;20204;-86
2022/02/03 06:51:55;;;;;;;3.35;3.05;;;;;;;;;;5097744;28;20208;-86
2022/02/03 06:54:31;;;;;;;3.03;2.72;;;;;;;;;;5098119;28;20204;-86
2022/02/03 06:57:02;;;;;;;3.53;3.22;;;;;;;;;;5098127;28;20590;-86
2022/02/03 06:59:39;;;;;;;3.38;3.08;;;;;;;;;;5098122;28;20232;-86
2022/02/03 07:02:06;;;;;;;3.10;2.90;;;;;;;;;;5098069;28;20222;-86
2022/02/03 07:04:41;;;;;;;3.25;2.95;;;;;;;;;;5099075;28;20196;-86
2022/02/03 07:07:08;;;;;;;2.33;2.20;;;;;;;;;;5100051;28;20618;-86
2022/02/03 07:09:36;;;;;;;2.47;2.28;;;;;;;;;;5100050;28;20704;-86
2022/02/03 07:12:06;;;;;;;2.58;2.38;;;;;;;;;;5099362;28;20664;-86
2022/02/03 07:14:35;;;;;;;3.08;2.85;;;;;;;;;;5100683;28;20836;-86
2022/02/03 07:17:04;;;;;;;2.50;2.30;;;;;;;;;;5100397;28;20192;-87
2022/02/03 07:19:34;;;;;;;2.70;2.50;;;;;;;;;;5100065;28;20220;-86
2022/02/03 07:22:01;;;;;;;3.22;2.97;;;;;;;;;;5100762;28;20216;-86
2022/02/03 07:24:29;;;;;;;4.38;3.22;;;;;;;;;;5099757;28;20620;-87
2022/02/03 07:26:56;;;;;;;4.57;4.07;;;;;;;;;;5099375;28;20200;-86
2022/02/03 07:29:23;;;;;;;2.97;2.78;;;;;;;;;;5098657;28;20197;-86
2022/02/03 07:31:52;;;;;;;2.80;2.60;;;;;;;;;;5097867;28;20200;-86
2022/02/03 07:34:20;;;;;;;4.30;3.88;;;;;;;;;;5098019;28;20204;-86
2022/02/03 07:36:48;;;;;;;5.40;4.28;;;;;;;;;;5098675;28;20211;-86
2022/02/03 07:39:15;;;;;;;5.50;4.25;;;;;;;;;;5098349;28;20220;-87
2022/02/03 07:41:43;;;;;;;6.13;5.47;;;;;;;;;;5096785;28;20263;-86
2022/02/03 07:44:13;;;;;;;7.25;5.57;;;;;;;;;;5097587;28;20661;-86
2022/02/03 07:46:41;;;;;;;6.53;5.00;;;;;;;;;;5096523;28;20204;-86
2022/02/03 07:49:10;;;;;;;6.30;5.68;;;;;;;;;;5096498;28;20197;-86
2022/02/03 07:51:37;;;;;;;6.85;6.07;;;;;;;;;;5096833;28;20221;-86
2022/02/03 07:54:05;;;;;;;4.95;4.45;;;;;;;;;;5096710;28;20196;-86
2022/02/03 07:56:32;;;;;;;5.53;4.05;;;;;;;;;;5097200;28;20286;-86
2022/02/03 07:59:00;;;;;;;5.68;5.10;;;;;;;;;;5097266;28;20664;-86
2022/02/03 08:01:27;;;;;;;5.43;4.93;;;;;;;;;;5096942;28;20695;-86
2022/02/03 08:03:55;;;;;;;8.57;6.82;;;;;;;;;;5096938;28;20196;-86
2022/02/03 08:06:28;;;;;;;7.10;5.70;;;;;;;;;;5097506;28;20227;-86
2022/02/03 08:09:02;;;;;;;7.75;6.45;;;;;;;;;;5097513;28;20601;-87
2022/02/03 08:11:35;;;;;;;7.80;6.43;;;;;;;;;;5097024;28;20245;-86
2022/02/03 08:14:08;;;;;;;10.02;8.43;;;;;;;;;;5098295;28;20633;-86
2022/02/03 08:16:39;;;;;;;12.98;7.93;;;;;;;;;;5096799;28;20207;-86
2022/02/03 08:19:12;;;;;;;9.00;7.15;;;;;;;;;;5097320;28;20201;-86
2022/02/03 08:21:45;;;;;;;9.55;7.35;;;;;;;;;;5097795;28;20224;-86
2022/02/03 08:24:22;;;;;;;9.65;8.38;;;;;;;;;;5097856;28;20231;-86
2022/02/03 08:27:01;;;;;;;14.00;9.20;;;;;;;;;;5096474;28;20196;-86
2022/02/03 08:32:18;;;;;;;10.52;7.82;;;;;;;;;;5090399;28;20199;-87
2022/02/03 08:35:08;;;;;;;12.40;9.60;;;;;;;;;;5096862;28;20207;-86
2022/02/03 08:37:52;;;;;;;11.93;8.82;;;;;;;;;;5096184;28;20200;-87
2022/02/03 08:40:25;;;;;;;9.40;7.38;;;;;;;;;;5096426;28;20224;-86
2022/02/03 08:42:53;;;;;;;7.47;6.32;;;;;;;;;;5096572;28;20647;-86
2022/02/03 08:45:20;;;;;;;8.20;6.85;;;;;;;;;;5096368;28;20258;-86
2022/02/03 08:47:47;;;;;;;8.90;7.43;;;;;;;;;;5099082;28;20617;-86
2022/02/03 08:50:16;;;;;;;12.85;8.93;;;;;;;;;;5099466;28;20603;-87
2022/02/03 08:52:53;;;;;;;11.93;9.55;;;;;;;;;;5099575;28;20207;-86
2022/02/03 08:55:30;;;;;;;13.52;8.48;;;;;;;;;;5099920;28;20291;-86
2022/02/03 09:01:01;;;;;;;11.07;8.27;;;;;;;;;;5096111;28;20277;-86
2022/02/03 09:39:52;;;;;;;6.30;5.70;;;;;;;;;;5055195;28;20218;-84
2022/02/03 09:51:35;;;;;;;8.20;7.32;;;;;;;;;;5100085;28;20226;-85
2022/02/03 09:56:41;;;;;;;6.38;5.68;;;;;;;;;;5098064;28;20586;-83
2022/02/03 09:59:13;;;;;;;4.85;4.45;;;;;;;;;;5099089;28;20212;-84
2022/02/03 10:01:45;;;;;;;5.28;4.78;;;;;;;;;;5098251;28;20204;-82
2022/02/03 10:04:17;;;;;;;5.20;4.70;;;;;;;;;;5096542;28;20230;-85
2022/02/03 10:06:54;;;;;;;5.75;5.25;;;;;;;;;;5096222;28;20204;-85
2022/02/03 10:09:37;;;;;;;6.82;6.13;;;;;;;;;;5095296;28;20667;-85
2022/02/03 10:12:05;;;;;;;6.28;5.63;;;;;;;;;;5097487;28;20196;-85
2022/02/03 10:14:36;;;;;;;6.25;5.65;;;;;;;;;;5096232;28;20208;-86
2022/02/03 10:17:04;;;;;;;5.82;4.97;;;;;;;;;;5098059;28;20208;-86
2022/02/03 10:19:35;;;;;;;4.07;3.53;;;;;;;;;;5096043;28;20220;-85
2022/02/03 10:22:04;;;;;;;4.45;3.83;;;;;;;;;;5095990;28;20220;-85
2022/02/03 10:24:36;;;;;;;4.88;4.35;;;;;;;;;;5097838;28;20204;-85
2022/02/03 10:27:04;;;;;;;4.95;4.03;;;;;;;;;;5100474;28;20214;-85
2022/02/03 10:29:37;;;;;;;4.65;4.15;;;;;;;;;;5100039;28;20226;-87
2022/02/03 10:32:09;;;;;;;4.95;4.55;;;;;;;;;;5098721;28;20200;-85
2022/02/03 10:34:42;;;;;;;6.53;5.82;;;;;;;;;;5098369;28;20226;-85
2022/02/03 10:37:20;;;;;;;6.68;5.65;;;;;;;;;;5100066;28;20213;-84
2022/02/03 10:40:10;;;;;;;4.82;4.40;;;;;;;;;;5100657;28;20216;-84
2022/02/03 10:46:11;;;;;;;7.20;5.57;;;;;;;;;;5100935;28;20215;-85
2022/02/03 10:49:18;;;;;;;6.68;5.90;;;;;;;;;;5100320;28;20205;-83
2022/02/03 10:55:08;;;;;;;5.03;4.43;;;;;;;;;;5083763;28;20292;-84
2022/02/03 10:58:02;;;;;;;5.03;4.63;;;;;;;;;;5099515;28;20645;-85
2022/02/03 11:00:53;;;;;;;4.82;4.38;;;;;;;;;;5100037;28;20327;-85
2022/02/03 11:03:31;;;;;;;10.23;6.05;;;;;;;;;;5097778;28;20216;-85
2022/02/03 11:06:12;;;;;;;5.22;4.40;;;;;;;;;;5100078;28;20621;-85
2022/02/03 11:08:46;;;;;;;3.50;3.20;;;;;;;;;;5098963;28;20200;-85
2022/02/03 11:11:18;;;;;;;5.30;4.13;;;;;;;;;;5099754;28;20227;-85
2022/02/03 11:13:47;;;;;;;2.97;2.67;;;;;;;;;;5099633;28;20208;-85
2022/02/03 11:16:15;;;;;;;3.47;3.17;;;;;;;;;;5098575;28;20211;-86
2022/02/03 11:18:45;;;;;;;3.03;2.75;;;;;;;;;;5099240;28;20196;-85
2022/02/03 11:21:15;;;;;;;2.45;2.25;;;;;;;;;;5097673;28;20209;-84
2022/02/03 11:23:51;;;;;;;1.80;1.70;;;;;;;;;;5107684;28;20457;-84
2022/02/03 11:26:27;;;;;;;2.00;1.80;;;;;;;;;;5117488;28;20198;-84
2022/02/03 11:29:18;;;;;;;1.85;1.52;;;;;;;;;;5119445;28;20203;-85
2022/02/03 11:49:52;;;;;;;2.17;1.95;;;;;;;;;;5120326;28;20203;-85
2022/02/03 11:55:44;;;;;;;2.00;1.90;;;;;;;;;;5117601;28;20198;-85
2022/02/03 11:58:54;;;;;;;2.13;1.60;;;;;;;;;;5098680;28;20196;-85
2022/02/03 12:01:47;;;;;;;1.30;1.20;;;;;;;;;;5096403;28;20294;-85
2022/02/03 12:04:58;;;;;;;1.60;1.50;;;;;;;;;;5096642;28;20228;-86
2022/02/03 12:07:51;;;;;;;1.33;1.33;;;;;;;;;;5096066;28;20223;-87
2022/02/03 12:10:48;;;;;;;1.92;1.80;;;;;;;;;;5097521;28;20220;-84
2022/02/03 12:13:37;;;;;;;1.83;1.40;;;;;;;;;;5097079;28;20576;-85
2022/02/03 12:16:16;;;;;;;1.20;1.10;;;;;;;;;;5097683;28;20587;-84
2022/02/03 12:19:05;;;;;;;1.50;1.40;;;;;;;;;;5098171;28;20207;-84
2022/02/03 12:21:39;;;;;;;1.30;1.17;;;;;;;;;;5099753;28;20273;-83
2022/02/03 12:24:18;;;;;;;1.40;1.30;;;;;;;;;;5101911;28;20223;-83
2022/02/03 12:26:53;;;;;;;1.40;1.30;;;;;;;;;;5102750;28;20204;-84
2022/02/03 12:29:29;;;;;;;1.10;1.05;;;;;;;;;;5101791;28;20187;-84
2022/02/03 12:32:10;;;;;;;1.30;1.20;;;;;;;;;;5101235;28;20660;-84
2022/02/03 12:37:54;;;;;;;1.95;1.70;;;;;;;;;;5101658;28;20574;-84
2022/02/03 12:40:31;;;;;;;1.08;1.05;;;;;;;;;;5100848;28;20762;-85
2022/02/03 12:43:15;;;;;;;1.35;1.30;;;;;;;;;;5101222;28;20211;-84
2022/02/03 12:45:42;;;;;;;1.40;1.30;;;;;;;;;;5100900;28;20683;-85
2022/02/03 12:48:11;;;;;;;1.33;1.33;;;;;;;;;;5100947;28;20200;-84
2022/02/03 12:50:41;;;;;;;1.50;1.40;;;;;;;;;;5099606;28;20224;-84
2022/02/03 12:53:09;;;;;;;1.75;1.65;;;;;;;;;;5101566;28;20204;-84
2022/02/03 12:55:39;;;;;;;1.15;1.05;;;;;;;;;;5101577;28;20235;-85
2022/02/03 12:58:14;;;;;;;1.40;1.30;;;;;;;;;;5101658;28;20235;-85
2022/02/03 13:00:48;;;;;;;1.10;1.10;;;;;;;;;;5101808;28;20261;-84
2022/02/03 13:03:17;;;;;;;1.30;1.20;;;;;;;;;;5102165;28;20208;-85
2022/02/03 13:05:53;;;;;;;1.10;1.10;;;;;;;;;;5101950;28;20577;-85
2022/02/03 13:08:22;;;;;;;1.42;1.42;;;;;;;;;;5101806;28;20294;-85
2022/02/03 13:10:53;;;;;;;1.90;1.80;;;;;;;;;;5101333;28;20639;-85
2022/02/03 13:13:29;;;;;;;1.60;1.50;;;;;;;;;;5101575;28;20223;-85
2022/02/03 13:15:57;;;;;;;1.75;1.65;;;;;;;;;;5102072;28;20220;-85
2022/02/03 13:18:29;;;;;;;1.40;1.30;;;;;;;;;;5101691;28;20225;-85
2022/02/03 13:21:04;;;;;;;1.80;1.70;;;;;;;;;;5101541;28;20227;-84
2022/02/03 13:23:34;;;;;;;1.60;1.42;;;;;;;;;;5101718;28;20223;-85
2022/02/03 13:26:07;;;;;;;1.40;1.30;;;;;;;;;;5102312;28;20555;-85
2022/02/03 13:28:45;;;;;;;1.25;1.15;;;;;;;;;;5102179;28;20257;-85
2022/02/03 13:31:23;;;;;;;1.23;1.15;;;;;;;;;;5102258;28;20239;-85
2022/02/03 13:34:06;;;;;;;1.08;1.08;;;;;;;;;;5100584;28;20192;-85
2022/02/03 13:36:41;;;;;;;1.27;1.17;;;;;;;;;;5100905;28;20257;-84
2022/02/03 13:39:24;;;;;;;1.02;1.00;;;;;;;;;;5100052;28;20674;-84
2022/02/03 13:42:03;;;;;;;0.93;0.93;;;;;;;;;;5100207;28;20208;-85
2022/02/03 13:44:32;;;;;;;1.05;1.05;;;;;;;;;;5101037;28;20281;-85
2022/02/03 13:47:00;;;;;;;0.80;0.80;;;;;;;;;;5100241;28;20196;-85
2022/02/03 13:49:29;;;;;;;1.50;1.40;;;;;;;;;;5100364;28;20200;-85
2022/02/03 13:52:03;;;;;;;1.10;1.10;;;;;;;;;;5099831;28;20210;-85
2022/02/03 13:54:57;;;;;;;1.23;1.15;;;;;;;;;;5100294;28;20581;-84
2022/02/03 14:14:53;;;;;;;1.48;1.30;;;;;;;;;;5057598;28;20199;-85
2022/02/03 14:17:47;;;;;;;1.05;1.05;;;;;;;;;;5094513;28;20207;-85
2022/02/03 14:23:25;;;;;;;1.88;1.70;;;;;;;;;;5094005;28;20203;-84
2022/02/03 14:28:39;;;;;;;1.67;1.58;;;;;;;;;;5094705;28;20222;-82
2022/02/03 14:31:07;;;;;;;1.10;1.10;;;;;;;;;;5093769;28;20224;-84
2022/02/03 14:33:39;;;;;;;1.20;1.20;;;;;;;;;;5093284;28;20207;-84
2022/02/03 14:36:12;;;;;;;0.90;0.90;;;;;;;;;;5093966;28;20574;-84
2022/02/03 14:38:46;;;;;;;1.15;1.15;;;;;;;;;;5094042;28;20200;-84
2022/02/03 14:41:24;;;;;;;0.90;0.90;;;;;;;;;;5093458;28;20302;-83
2022/02/03 14:43:52;;;;;;;0.80;0.80;;;;;;;;;;5092867;28;20630;-84
2022/02/03 14:46:20;;;;;;;0.68;0.68;;;;;;;;;;5094236;28;20215;-84
2022/02/03 14:48:50;;;;;;;1.27;1.20;;;;;;;;;;5093620;28;20193;-84
2022/02/03 14:51:22;;;;;;;1.17;0.93;;;;;;;;;;5093460;28;20660;-84
2022/02/03 14:53:54;;;;;;;0.80;0.80;;;;;;;;;;5093232;28;20287;-84
2022/02/03 14:59:12;;;;;;;0.70;0.70;;;;;;;;;;5035833;28;20225;-84
2022/02/03 15:01:39;;;;;;;0.90;0.90;;;;;;;;;;5093172;28;20208;-84
2022/02/03 15:04:12;;;;;;;0.70;0.70;;;;;;;;;;5093044;28;20238;-84
2022/02/03 15:06:42;;;;;;;0.77;0.77;;;;;;;;;;5093285;28;20200;-83
2022/02/03 15:09:20;;;;;;;0.90;0.90;;;;;;;;;;5093487;28;20206;-84
2022/02/03 15:12:02;;;;;;;1.30;1.20;;;;;;;;;;5093110;28;20614;-84
2022/02/03 15:14:32;;;;;;;1.00;1.00;;;;;;;;;;5092873;28;20242;-83
2022/02/03 15:16:59;;;;;;;0.65;0.65;;;;;;;;;;5093113;28;20291;-84
2022/02/03 15:19:28;;;;;;;0.80;0.80;;;;;;;;;;5093120;28;20664;-84
2022/02/03 15:21:55;;;;;;;1.02;1.02;;;;;;;;;;5092845;28;20197;-84
2022/02/03 15:24:23;;;;;;;1.45;1.00;;;;;;;;;;5092589;28;20196;-84
2022/02/03 15:26:50;;;;;;;0.82;0.82;;;;;;;;;;5093014;28;20253;-84
2022/02/03 15:29:18;;;;;;;1.00;1.00;;;;;;;;;;5092815;28;20209;-84
2022/02/03 15:31:45;;;;;;;1.20;1.10;;;;;;;;;;5092683;28;20216;-87
2022/02/03 15:34:18;;;;;;;1.00;1.00;;;;;;;;;;5092729;28;20195;-84
2022/02/03 15:36:51;;;;;;;2.20;2.00;;;;;;;;;;5092871;28;20204;-84
2022/02/03 15:39:23;;;;;;;1.90;1.67;;;;;;;;;;5092677;28;20265;-83
2022/02/03 15:41:52;;;;;;;1.75;1.65;;;;;;;;;;5092682;28;20227;-84
2022/02/03 15:44:21;;;;;;;1.85;1.60;;;;;;;;;;5101690;28;20212;-85
2022/02/03 15:47:00;;;;;;;1.50;1.40;;;;;;;;;;5101441;28;20221;-84
2022/02/03 15:49:59;;;;;;;1.60;1.50;;;;;;;;;;5101663;28;20294;-85
2022/02/03 16:01:15;;;;;;;1.15;1.10;;;;;;;;;;5050676;28;20234;-85
2022/02/03 16:03:48;;;;;;;1.85;0.98;;;;;;;;;;5102008;28;20199;-85
2022/02/03 16:17:27;;;;;;;0.80;0.80;;;;;;;;;;5092841;28;20203;-83
2022/02/03 16:20:01;;;;;;;1.20;1.10;;;;;;;;;;5100163;28;20228;-84
2022/02/03 16:22:41;;;;;;;1.00;1.00;;;;;;;;;;5103111;28;20628;-84
2022/02/03 16:25:20;;;;;;;2.03;1.38;;;;;;;;;;5100913;28;20753;-89
2022/02/03 16:42:58;;;;;;;2.20;2.00;;;;;;;;;;5094808;28;20203;-85
2022/02/03 16:50:51;;;;;;;5.13;3.53;;;;;;;;;;5098751;28;20241;-85
2022/02/03 16:53:19;;;;;;;4.97;3.58;;;;;;;;;;5098347;28;20200;-83
2022/02/03 16:55:47;;;;;;;5.85;4.97;;;;;;;;;;5099113;28;20196;-84
2022/02/03 16:58:16;;;;;;;5.38;4.53;;;;;;;;;;5098773;28;20206;-84
2022/02/03 17:00:45;;;;;;;7.22;5.25;;;;;;;;;;5097443;28;20716;-84
2022/02/03 17:03:12;;;;;;;5.80;2.70;;;;;;;;;;5097681;28;20664;-84
2022/02/03 17:05:40;;;;;;;2.53;2.33;;;;;;;;;;5097109;28;20224;-85
2022/02/03 17:08:08;;;;;;;2.40;2.17;;;;;;;;;;5098572;28;20675;-85
2022/02/03 17:10:36;;;;;;;5.05;3.70;;;;;;;;;;5101095;28;20226;-84
2022/02/03 17:13:04;;;;;;;5.25;3.30;;;;;;;;;;5100099;28;20660;-84
2022/02/03 17:15:35;;;;;;;2.75;2.13;;;;;;;;;;5100222;28;20638;-84
2022/02/03 17:18:03;;;;;;;3.75;3.17;;;;;;;;;;5100021;28;20203;-85
2022/02/03 17:20:33;;;;;;;4.03;3.05;;;;;;;;;;5100302;28;20215;-84
2022/02/03 17:23:04;;;;;;;2.58;1.92;;;;;;;;;;5100083;28;20206;-84
2022/02/03 17:25:38;;;;;;;2.60;2.28;;;;;;;;;;5099915;28;20200;-84
2022/02/03 17:28:12;;;;;;;1.25;1.15;;;;;;;;;;5099691;28;20655;-84
2022/02/03 17:30:47;;;;;;;1.17;1.08;;;;;;;;;;5100432;28;20219;-84
2022/02/03 18:04:33;;;;;;;1.10;1.10;;;;;;;;;;5026344;28;20305;-85
2022/02/03 18:09:54;;;;;;;1.13;1.08;;;;;;;;;;5060580;28;20726;-85
2022/02/03 18:27:03;;;;;;;2.47;2.13;;;;;;;;;;5103809;28;20226;-84
2022/02/03 18:29:47;;;;;;;1.40;1.30;;;;;;;;;;5117418;28;20234;-85
2022/02/03 18:51:59;;;;;;;1.15;1.15;;;;;;;;;;5098192;28;20320;-86
2022/02/03 18:54:44;;;;;;;0.60;0.60;;;;;;;;;;5097823;28;20230;-84
2022/02/03 18:57:25;;;;;;;0.60;0.60;;;;;;;;;;5114983;28;20199;-84
2022/02/03 19:00:23;;;;;;;0.93;0.93;;;;;;;;;;5117056;28;20228;-85
2022/02/03 19:03:25;;;;;;;0.95;0.95;;;;;;;;;;5117115;28;21204;-85
2022/02/03 19:14:43;;;;;;;1.42;1.33;;;;;;;;;;5117101;27;20202;-84
2022/02/03 19:26:00;;;;;;;0.75;0.75;;;;;;;;;;5115370;28;20241;-84
2022/02/03 19:28:44;;;;;;;1.02;1.02;;;;;;;;;;5098857;28;20707;-84
2022/02/03 20:02:14;;;;;;;1.50;1.40;;;;;;;;;;5093713;28;20254;-86
2022/02/03 20:04:52;;;;;;;0.90;0.90;;;;;;;;;;5098733;28;20203;-87
2022/02/03 20:07:24;;;;;;;1.10;1.10;;;;;;;;;;5099983;28;20806;-87
2022/02/03 20:10:02;;;;;;;1.15;1.15;;;;;;;;;;5093744;28;20647;-86
2022/02/03 20:12:30;;;;;;;0.93;0.93;;;;;;;;;;5094891;28;20634;-86
2022/02/03 20:14:59;;;;;;;0.90;0.90;;;;;;;;;;5113193;28;20215;-87
2022/02/03 20:17:28;;;;;;;0.88;0.88;;;;;;;;;;5112898;28;20628;-86
2022/02/03 20:19:56;;;;;;;1.05;1.05;;;;;;;;;;5112806;28;20698;-87
2022/02/03 20:22:28;;;;;;;1.10;1.10;;;;;;;;;;5104413;28;20202;-86
2022/02/03 20:24:56;;;;;;;1.10;1.10;;;;;;;;;;5093711;28;20261;-86
2022/02/03 20:27:23;;;;;;;1.00;1.00;;;;;;;;;;5096660;28;20255;-87
2022/02/03 20:29:51;;;;;;;1.10;1.10;;;;;;;;;;5093524;28;20227;-86
2022/02/03 20:32:18;;;;;;;0.93;0.93;;;;;;;;;;5093018;28;20215;-86
2022/02/03 20:34:47;;;;;;;1.23;1.15;;;;;;;;;;5106360;28;20227;-87
2022/02/03 20:37:15;;;;;;;1.10;1.10;;;;;;;;;;5099710;28;20675;-86
2022/02/03 20:39:43;;;;;;;0.77;0.77;;;;;;;;;;5092236;28;20224;-87
2022/02/03 20:42:15;;;;;;;1.08;0.98;;;;;;;;;;5093815;28;20216;-86
2022/02/03 20:44:44;;;;;;;1.15;1.08;;;;;;;;;;5103748;28;20277;-86
2022/02/03 20:47:11;;;;;;;1.27;1.27;;;;;;;;;;5096888;28;20657;-87
2022/02/03 20:49:42;;;;;;;1.65;1.55;;;;;;;;;;5099679;28;20218;-87
2022/02/03 20:52:11;;;;;;;1.40;1.30;;;;;;;;;;5096372;28;20617;-87
2022/02/03 20:54:39;;;;;;;1.20;1.20;;;;;;;;;;5096705;28;20210;-87
2022/02/03 20:57:07;;;;;;;1.35;1.33;;;;;;;;;;5104097;28;20324;-87
2022/02/03 20:59:53;;;;;;;1.50;1.45;;;;;;;;;;5097628;28;20224;-86
2022/02/03 21:02:30;;;;;;;1.60;1.50;;;;;;;;;;5096935;28;20204;-87
2022/02/03 21:05:05;;;;;;;1.65;1.50;;;;;;;;;;5097220;28;20210;-87
2022/02/03 21:07:34;;;;;;;2.75;2.35;;;;;;;;;;5101430;28;20243;-88
2022/02/03 21:10:04;;;;;;;2.70;2.47;;;;;;;;;;5118876;28;20292;-86
2022/02/03 21:12:32;;;;;;;2.38;1.88;;;;;;;;;;5118991;28;20200;-88
2022/02/03 21:15:00;;;;;;;1.90;1.80;;;;;;;;;;5118530;28;20205;-88
2022/02/03 21:17:30;;;;;;;2.05;1.95;;;;;;;;;;5102349;28;20204;-86
2022/02/03 21:20:05;;;;;;;1.60;1.50;;;;;;;;;;5098008;28;20224;-87
2022/02/03 21:22:37;;;;;;;1.92;1.83;;;;;;;;;;5097764;28;20204;-87
2022/02/03 21:25:17;;;;;;;2.00;1.90;;;;;;;;;;5098403;28;20294;-87
2022/02/03 21:27:45;;;;;;;2.05;1.95;;;;;;;;;;5109450;28;20306;-86
2022/02/03 21:30:14;;;;;;;2.20;2.10;;;;;;;;;;5116850;28;20228;-86
2022/02/03 21:32:42;;;;;;;1.95;1.83;;;;;;;;;;5110904;28;20207;-86
2022/02/03 21:35:10;;;;;;;1.77;1.67;;;;;;;;;;5097283;28;20196;-86
2022/02/03 21:37:39;;;;;;;1.65;1.55;;;;;;;;;;5116139;28;20584;-87
2022/02/03 21:40:09;;;;;;;1.30;1.20;;;;;;;;;;5115719;28;20223;-86
2022/02/03 21:42:37;;;;;;;1.50;1.40;;;;;;;;;;5095649;28;20234;-87
2022/02/03 21:45:06;;;;;;;1.58;1.40;;;;;;;;;;5095932;28;20203;-89
2022/02/03 21:47:34;;;;;;;1.52;1.42;;;;;;;;;;5095324;28;20192;-87
2022/02/03 21:50:02;;;;;;;2.97;2.30;;;;;;;;;;5108978;28;20702;-87
2022/02/03 21:52:35;;;;;;;3.00;2.33;;;;;;;;;;5115761;28;20214;-87
2022/02/03 21:55:06;;;;;;;2.22;2.10;;;;;;;;;;5116512;28;20200;-86
2022/02/03 21:57:33;;;;;;;4.78;4.38;;;;;;;;;;5102451;28;20197;-86
2022/02/03 22:00:01;;;;;;;4.47;4.07;;;;;;;;;;5096754;28;20314;-86
2022/02/03 22:02:29;;;;;;;2.60;2.35;;;;;;;;;;5104521;28;20203;-87
2022/02/03 22:04:56;;;;;;;2.15;2.00;;;;;;;;;;5116241;28;20195;-86
2022/02/03 22:07:24;;;;;;;1.90;1.73;;;;;;;;;;5116313;28;20196;-86
2022/02/03 22:09:51;;;;;;;2.10;2.00;;;;;;;;;;5115608;28;20231;-86
2022/02/03 22:12:20;;;;;;;1.80;1.58;;;;;;;;;;5107675;28;20205;-86
2022/02/03 22:14:48;;;;;;;2.08;1.98;;;;;;;;;;5096814;28;20204;-86
2022/02/03 22:17:15;;;;;;;1.80;1.70;;;;;;;;;;5115412;28;20619;-87
2022/02/03 22:19:48;;;;;;;1.67;1.58;;;;;;;;;;5095487;28;20220;-87
2022/02/03 22:22:32;;;;;;;2.10;2.00;;;;;;;;;;5095457;28;20204;-86
2022/02/03 22:25:15;;;;;;;2.10;2.00;;;;;;;;;;5095480;28;20295;-87
2022/02/03 22:28:00;;;;;;;1.30;1.20;;;;;;;;;;5095386;28;20258;-87
2022/02/03 22:38:55;;;;;;;2.25;2.15;;;;;;;;;;5098023;28;20325;-86
2022/02/03 22:44:11;;;;;;;2.42;2.20;;;;;;;;;;5054812;28;20653;-86
2022/02/03 22:46:53;;;;;;;2.17;1.98;;;;;;;;;;5097286;28;20230;-86
2022/02/03 22:49:20;;;;;;;2.63;2.42;;;;;;;;;;5108888;28;20211;-87
2022/02/03 22:51:47;;;;;;;2.47;2.28;;;;;;;;;;5129151;22;20686;-82
2022/02/03 22:54:17;;;;;;;3.10;2.83;;;;;;;;;;5135730;27;20225;-82
2022/02/03 22:56:45;;;;;;;2.67;2.47;;;;;;;;;;5136401;27;20302;-82
2022/02/03 23:02:10;;;;;;;1.95;1.85;;;;;;;;;;5136056;27;20222;-82
2022/02/03 23:04:38;;;;;;;1.70;1.60;;;;;;;;;;5135750;27;20264;-82
2022/02/03 23:07:14;;;;;;;1.92;1.83;;;;;;;;;;5136185;27;20227;-82
2022/02/03 23:09:50;;;;;;;1.77;1.67;;;;;;;;;;5136003;27;20236;-82
2022/02/03 23:12:30;;;;;;;1.63;1.52;;;;;;;;;;5136234;27;20685;-81
2022/02/03 23:15:28;;;;;;;1.38;1.30;;;;;;;;;;5136057;27;20206;-82
2022/02/03 23:17:59;;;;;;;1.85;1.75;;;;;;;;;;5136378;27;20203;-82
2022/02/03 23:20:39;;;;;;;1.95;1.85;;;;;;;;;;5136248;27;20202;-82
2022/02/03 23:23:06;;;;;;;2.08;1.98;;;;;;;;;;5136382;27;20682;-82
2022/02/03 23:25:33;;;;;;;2.67;2.47;;;;;;;;;;5135680;27;20627;-82
2022/02/03 23:28:14;;;;;;;1.75;1.65;;;;;;;;;;5136273;27;20740;-83
2022/02/03 23:30:46;;;;;;;1.70;1.60;;;;;;;;;;5136032;27;20657;-82
2022/02/03 23:33:13;;;;;;;1.80;1.70;;;;;;;;;;5135859;27;20223;-83
2022/02/03 23:35:42;;;;;;;2.03;1.92;;;;;;;;;;5135845;27;20838;-82
2022/02/03 23:38:30;;;;;;;2.83;1.85;;;;;;;;;;5136215;27;20230;-82
2022/02/03 23:44:16;;;;;;;2.22;2.13;;;;;;;;;;5071892;28;20216;-83
2022/02/03 23:47:08;;;;;;;2.15;2.05;;;;;;;;;;5072231;28;20197;-83
